Elk Creek, Wisconsin
Current Conditions -  °F | °C
As of 5:34 PM on Saturday 20 Dec 2014 (Local Time) from KONA Reporting Station
Haze Haze  
Wind Chill: 32°   Ceiling: 1400
Heat Index: 32°   Visibility: 5mi
Dew Point: 32°   Wind: 3mph
Humidity: 100%   Direction: 130°SE
Pressure: 30.17"   Gusts: NA
Location:  44.4253°N, 91.4821°W
Report Text: KONA 202334Z AUTO 13003KT 5SM BR OVC014 00/00 A3017 RMK AO2
Loading
Personal Weather Stations






























Interactive Weather Map New forecast layout! Learn more

10-Day Weather Forecast

Advertisements
Track Severe Weather on mobile